createdAt,value
2017-07-10T00:00:09.433Z,0
2017-07-10T00:01:18.358Z,0
2017-07-10T00:02:27.274Z,0
2017-07-10T00:03:36.201Z,0
2017-07-10T00:04:45.126Z,0
2017-07-10T00:05:54.049Z,0
2017-07-10T00:07:02.973Z,0
2017-07-10T00:08:11.899Z,0
2017-07-10T00:09:20.821Z,0
2017-07-10T00:10:29.742Z,0
2017-07-10T00:11:38.662Z,0
2017-07-10T00:12:47.587Z,0
2017-07-10T00:13:56.511Z,0
2017-07-10T00:15:05.516Z,0
2017-07-10T00:16:14.440Z,0
2017-07-10T00:17:23.358Z,0
2017-07-10T00:18:32.619Z,0
2017-07-10T00:19:41.541Z,0
2017-07-10T00:20:50.459Z,0
2017-07-10T00:21:59.377Z,0
2017-07-10T00:23:08.297Z,0
2017-07-10T00:24:17.220Z,0
2017-07-10T00:25:26.146Z,0
2017-07-10T00:26:35.073Z,0
2017-07-10T00:27:43.995Z,0
2017-07-10T00:28:52.915Z,0
2017-07-10T00:30:01.836Z,0
2017-07-10T00:31:10.756Z,0
2017-07-10T00:32:19.681Z,0
2017-07-10T00:33:28.606Z,0
2017-07-10T00:34:37.528Z,0
2017-07-10T00:35:46.446Z,0
2017-07-10T00:36:55.369Z,0
2017-07-10T00:38:04.289Z,0
2017-07-10T00:39:13.208Z,0
2017-07-10T00:40:22.134Z,0
2017-07-10T00:41:31.051Z,0
2017-07-10T00:42:39.973Z,0
2017-07-10T00:43:48.980Z,0
2017-07-10T00:44:57.905Z,0
2017-07-10T00:46:06.825Z,0
2017-07-10T00:47:15.745Z,0
2017-07-10T00:48:24.664Z,0
2017-07-10T00:49:33.589Z,0
2017-07-10T00:50:42.503Z,0
2017-07-10T00:51:51.428Z,0
2017-07-10T00:53:00.348Z,0
2017-07-10T00:54:09.266Z,0
2017-07-10T00:55:18.189Z,0
2017-07-10T00:56:27.113Z,0
2017-07-10T00:57:36.043Z,0
2017-07-10T00:58:44.961Z,0
2017-07-10T00:59:53.885Z,0
2017-07-10T01:01:03.137Z,0
2017-07-10T01:02:12.149Z,0
2017-07-10T01:03:21.079Z,0
2017-07-10T01:04:30.005Z,0
2017-07-10T01:05:38.932Z,0
2017-07-10T01:06:47.850Z,0
2017-07-10T01:07:56.770Z,0
2017-07-10T01:09:06.026Z,0
2017-07-10T01:10:14.944Z,0
2017-07-10T01:11:23.863Z,0
2017-07-10T01:12:32.789Z,0
2017-07-10T01:13:41.710Z,0
2017-07-10T01:14:50.626Z,0
2017-07-10T01:15:59.544Z,0
2017-07-10T01:17:08.465Z,0
2017-07-10T01:18:17.392Z,0
2017-07-10T01:19:26.308Z,0
2017-07-10T01:20:35.235Z,0
2017-07-10T01:21:44.159Z,0
2017-07-10T01:22:53.079Z,0
2017-07-10T01:24:01.998Z,0
2017-07-10T01:25:10.917Z,0
2017-07-10T01:26:19.842Z,0
2017-07-10T01:27:28.769Z,0
2017-07-10T01:28:37.688Z,0
2017-07-10T01:29:46.607Z,0
2017-07-10T01:30:55.527Z,0
2017-07-10T01:32:04.453Z,0
2017-07-10T01:33:13.374Z,0
2017-07-10T01:34:22.292Z,0
2017-07-10T01:35:31.213Z,0
2017-07-10T01:36:40.218Z,0
2017-07-10T01:37:49.135Z,0
2017-07-10T01:38:58.061Z,0
2017-07-10T01:40:06.980Z,0
2017-07-10T01:41:15.899Z,0
2017-07-10T01:42:24.821Z,0
2017-07-10T01:43:33.745Z,0
2017-07-10T01:44:42.676Z,0
2017-07-10T01:45:51.584Z,0
2017-07-10T01:47:00.507Z,0
2017-07-10T01:48:09.422Z,0
2017-07-10T01:49:18.435Z,0
2017-07-10T01:50:27.363Z,0
2017-07-10T01:51:36.282Z,0
2017-07-10T01:52:45.204Z,0
2017-07-10T01:53:54.117Z,0
2017-07-10T01:55:03.040Z,0
2017-07-10T01:56:11.958Z,0
2017-07-10T01:57:20.882Z,0
2017-07-10T01:58:29.802Z,0
2017-07-10T01:59:38.722Z,0
2017-07-10T02:00:47.640Z,0
2017-07-10T02:01:56.555Z,0
2017-07-10T02:03:05.477Z,0
2017-07-10T02:04:14.396Z,0
2017-07-10T02:05:23.315Z,0
2017-07-10T02:06:32.241Z,0
2017-07-10T02:07:41.250Z,0
2017-07-10T02:08:50.249Z,0
2017-07-10T02:09:59.163Z,0
2017-07-10T02:11:08.088Z,0
2017-07-10T02:12:17.336Z,0
2017-07-10T02:13:26.261Z,0
2017-07-10T02:14:35.180Z,0
2017-07-10T02:15:44.101Z,0
2017-07-10T02:16:53.029Z,0
2017-07-10T02:18:01.952Z,0
2017-07-10T02:19:10.876Z,0
2017-07-10T02:20:19.799Z,0
2017-07-10T02:21:28.718Z,0
2017-07-10T02:22:37.640Z,0
2017-07-10T02:23:46.561Z,4
2017-07-10T02:24:55.487Z,0
2017-07-10T02:26:04.485Z,0
2017-07-10T02:27:13.407Z,4
2017-07-10T02:28:22.328Z,0
2017-07-10T02:29:31.251Z,4
2017-07-10T02:30:40.172Z,4
2017-07-10T02:31:49.085Z,4
2017-07-10T02:32:58.060Z,0
2017-07-10T02:34:07.250Z,4
2017-07-10T02:35:16.170Z,4
2017-07-10T02:36:25.097Z,4
2017-07-10T02:37:34.106Z,4
2017-07-10T02:38:43.023Z,4
2017-07-10T02:39:51.944Z,4
2017-07-10T02:41:00.862Z,8
2017-07-10T02:42:09.781Z,8
2017-07-10T02:43:18.695Z,12
2017-07-10T02:44:27.618Z,12
2017-07-10T02:45:36.535Z,12
2017-07-10T02:46:45.455Z,12
2017-07-10T02:47:54.378Z,16
2017-07-10T02:49:03.299Z,16
2017-07-10T02:50:12.217Z,16
2017-07-10T02:51:21.143Z,16
2017-07-10T02:52:30.113Z,20
2017-07-10T02:53:38.979Z,24
2017-07-10T02:54:47.899Z,24
2017-07-10T02:55:57.153Z,28
2017-07-10T02:57:06.074Z,28
2017-07-10T02:58:14.993Z,28
2017-07-10T02:59:23.907Z,28
2017-07-10T03:00:32.822Z,32
2017-07-10T03:01:41.745Z,36
2017-07-10T03:02:50.661Z,36
2017-07-10T03:03:59.582Z,36
2017-07-10T03:05:08.512Z,40
2017-07-10T03:06:17.522Z,48
2017-07-10T03:07:26.444Z,52
2017-07-10T03:08:35.371Z,56
2017-07-10T03:09:44.325Z,64
2017-07-10T03:10:53.265Z,68
2017-07-10T03:12:02.132Z,72
2017-07-10T03:13:11.133Z,76
2017-07-10T03:14:20.053Z,80
2017-07-10T03:15:28.977Z,84
2017-07-10T03:16:37.893Z,88
2017-07-10T03:17:46.816Z,92
2017-07-10T03:18:55.734Z,96
2017-07-10T03:20:04.653Z,104
2017-07-10T03:21:13.594Z,108
2017-07-10T03:22:22.507Z,120
2017-07-10T03:23:31.432Z,124
2017-07-10T03:24:40.350Z,136
2017-07-10T03:25:49.263Z,144
2017-07-10T03:26:58.194Z,152
2017-07-10T03:28:07.113Z,160
2017-07-10T03:29:16.035Z,168
2017-07-10T03:30:24.958Z,180
2017-07-10T03:31:33.878Z,192
2017-07-10T03:32:42.803Z,204
2017-07-10T03:33:51.728Z,220
2017-07-10T03:35:00.641Z,232
2017-07-10T03:36:09.557Z,248
2017-07-10T03:37:18.486Z,260
2017-07-10T03:38:27.410Z,276
2017-07-10T03:39:36.332Z,284
2017-07-10T03:40:45.251Z,300
2017-07-10T03:41:54.171Z,308
2017-07-10T03:43:03.421Z,316
2017-07-10T03:44:12.340Z,328
2017-07-10T03:45:21.263Z,332
2017-07-10T03:46:30.478Z,336
2017-07-10T03:47:39.406Z,340
2017-07-10T03:48:48.328Z,344
2017-07-10T03:49:57.255Z,348
2017-07-10T03:51:06.177Z,348
2017-07-10T03:52:15.098Z,356
2017-07-10T03:53:24.020Z,364
2017-07-10T03:54:32.936Z,368
2017-07-10T03:55:41.853Z,380
2017-07-10T03:56:50.775Z,380
2017-07-10T03:57:59.698Z,392
2017-07-10T03:59:08.614Z,400
2017-07-10T04:00:17.533Z,412
2017-07-10T04:01:26.462Z,424
2017-07-10T04:02:35.379Z,432
2017-07-10T04:03:44.300Z,440
2017-07-10T04:04:53.224Z,452
2017-07-10T04:06:02.139Z,460
2017-07-10T04:07:11.060Z,472
2017-07-10T04:08:19.984Z,484
2017-07-10T04:09:28.910Z,488
2017-07-10T04:10:37.831Z,500
2017-07-10T04:11:46.749Z,508
2017-07-10T04:12:55.668Z,516
2017-07-10T04:14:04.589Z,528
2017-07-10T04:15:13.513Z,544
2017-07-10T04:16:22.437Z,556
2017-07-10T04:17:31.359Z,556
2017-07-10T04:18:40.279Z,572
2017-07-10T04:19:49.206Z,580
2017-07-10T04:20:58.123Z,596
2017-07-10T04:22:07.046Z,612
2017-07-10T04:23:15.964Z,624
2017-07-10T04:24:24.883Z,644
2017-07-10T04:25:33.804Z,672
2017-07-10T04:26:42.721Z,696
2017-07-10T04:27:51.639Z,720
2017-07-10T04:29:00.559Z,748
2017-07-10T04:30:09.477Z,764
2017-07-10T04:31:18.400Z,780
2017-07-10T04:32:27.329Z,800
2017-07-10T04:33:36.245Z,824
2017-07-10T04:34:45.169Z,844
2017-07-10T04:35:54.086Z,848
2017-07-10T04:37:03.003Z,856
2017-07-10T04:38:11.935Z,864
2017-07-10T04:39:20.937Z,872
2017-07-10T04:40:29.869Z,880
2017-07-10T04:41:39.129Z,888
2017-07-10T04:42:48.057Z,900
2017-07-10T04:43:56.976Z,900
2017-07-10T04:45:05.891Z,896
2017-07-10T04:46:14.813Z,896
2017-07-10T04:47:23.742Z,888
2017-07-10T04:48:32.664Z,900
2017-07-10T04:49:41.669Z,900
2017-07-10T04:50:50.587Z,904
2017-07-10T04:51:59.508Z,908
2017-07-10T04:53:08.429Z,904
2017-07-10T04:54:17.434Z,908
2017-07-10T04:55:26.355Z,920
2017-07-10T04:56:35.271Z,924
2017-07-10T04:57:44.190Z,940
2017-07-10T04:58:53.117Z,952
2017-07-10T05:00:02.041Z,964
2017-07-10T05:01:10.962Z,976
2017-07-10T05:02:19.881Z,980
2017-07-10T05:03:28.804Z,996
2017-07-10T05:04:37.728Z,1012
2017-07-10T05:05:46.645Z,1032
2017-07-10T05:06:55.566Z,1044
2017-07-10T05:08:04.492Z,1072
2017-07-10T05:09:13.753Z,1088
2017-07-10T05:10:22.671Z,1116
2017-07-10T05:11:31.595Z,1136
2017-07-10T05:12:40.514Z,1160
2017-07-10T05:13:49.435Z,1184
2017-07-10T05:14:58.367Z,1196
2017-07-10T05:16:07.293Z,1204
2017-07-10T05:17:16.213Z,1208
2017-07-10T05:18:25.133Z,1224
2017-07-10T05:19:34.051Z,1232
2017-07-10T05:20:42.969Z,1228
2017-07-10T05:21:51.895Z,1224
2017-07-10T05:23:00.808Z,1228
2017-07-10T05:24:09.720Z,1228
2017-07-10T05:25:18.646Z,1216
2017-07-10T05:26:27.564Z,1200
2017-07-10T05:27:36.577Z,1172
2017-07-10T05:28:45.494Z,1156
2017-07-10T05:29:54.417Z,1160
2017-07-10T05:31:03.329Z,1156
2017-07-10T05:32:12.254Z,1164
2017-07-10T05:33:21.182Z,1184
2017-07-10T05:34:30.099Z,1192
2017-07-10T05:35:39.019Z,1188
2017-07-10T05:36:47.934Z,1176
2017-07-10T05:37:56.860Z,1140
2017-07-10T05:39:05.778Z,1112
2017-07-10T05:40:14.706Z,1096
2017-07-10T05:41:23.962Z,1100
2017-07-10T05:42:32.890Z,1100
2017-07-10T05:43:41.817Z,1120
2017-07-10T05:44:50.737Z,1144
2017-07-10T05:45:59.657Z,1160
2017-07-10T05:47:08.578Z,1188
2017-07-10T05:48:17.504Z,1200
2017-07-10T05:49:26.436Z,1212
2017-07-10T05:50:35.361Z,1236
2017-07-10T05:51:44.284Z,1264
2017-07-10T05:52:53.214Z,1296
2017-07-10T05:54:02.139Z,1348
2017-07-10T05:55:11.059Z,1388
2017-07-10T05:56:19.979Z,1396
2017-07-10T05:57:28.906Z,1412
2017-07-10T05:58:37.826Z,1424
2017-07-10T05:59:46.750Z,1440
2017-07-10T06:00:55.677Z,1480
2017-07-10T06:02:04.593Z,1504
2017-07-10T06:03:13.511Z,1528
2017-07-10T06:04:22.433Z,1556
2017-07-10T06:05:31.355Z,1596
2017-07-10T06:06:40.276Z,1620
2017-07-10T06:07:49.195Z,1624
2017-07-10T06:08:58.114Z,1612
2017-07-10T06:10:07.041Z,1632
2017-07-10T06:11:16.293Z,1660
2017-07-10T06:12:25.219Z,1608
2017-07-10T06:13:34.138Z,1536
2017-07-10T06:14:43.061Z,1504
2017-07-10T06:15:51.979Z,1476
2017-07-10T06:17:00.900Z,1460
2017-07-10T06:18:09.816Z,1436
2017-07-10T06:19:18.736Z,1436
2017-07-10T06:20:27.746Z,1420
2017-07-10T06:21:36.671Z,1460
2017-07-10T06:22:45.594Z,1492
2017-07-10T06:23:54.509Z,1496
2017-07-10T06:25:03.524Z,1468
2017-07-10T06:26:12.449Z,1428
2017-07-10T06:27:21.368Z,1404
2017-07-10T06:28:30.288Z,1412
2017-07-10T06:29:39.213Z,1428
2017-07-10T06:30:48.131Z,1488
2017-07-10T06:31:57.053Z,1496
2017-07-10T06:33:05.971Z,1472
2017-07-10T06:34:14.888Z,1428
2017-07-10T06:35:23.811Z,1452
2017-07-10T06:36:32.822Z,1476
2017-07-10T06:37:41.748Z,1488
2017-07-10T06:38:50.675Z,1508
2017-07-10T06:39:59.604Z,1576
2017-07-10T06:41:08.527Z,1584
2017-07-10T06:42:17.453Z,1676
2017-07-10T06:43:26.372Z,1784
2017-07-10T06:44:35.299Z,1876
2017-07-10T06:45:44.215Z,1920
2017-07-10T06:46:53.144Z,1976
2017-07-10T06:48:02.150Z,1940
2017-07-10T06:49:11.068Z,1912
2017-07-10T06:50:19.985Z,1912
2017-07-10T06:51:28.909Z,1828
2017-07-10T06:52:37.829Z,1728
2017-07-10T06:53:46.750Z,1644
2017-07-10T06:54:55.677Z,1576
2017-07-10T06:56:04.601Z,1512
2017-07-10T06:57:13.516Z,1444
2017-07-10T06:58:22.439Z,1392
2017-07-10T06:59:31.364Z,1388
2017-07-10T07:00:40.381Z,1404
2017-07-10T07:01:49.308Z,1408
2017-07-10T07:02:58.234Z,1412
2017-07-10T07:04:07.492Z,1408
2017-07-10T07:05:16.414Z,1392
2017-07-10T07:06:25.336Z,1348
2017-07-10T07:07:34.259Z,1316
2017-07-10T07:08:43.186Z,1284
2017-07-10T07:09:52.104Z,1284
2017-07-10T07:11:01.022Z,1288
2017-07-10T07:12:09.943Z,1308
2017-07-10T07:13:18.866Z,1312
2017-07-10T07:14:27.792Z,1360
2017-07-10T07:15:36.713Z,1412
2017-07-10T07:16:45.637Z,1444
2017-07-10T07:17:54.563Z,1500
2017-07-10T07:19:03.485Z,1516
2017-07-10T07:20:12.410Z,1528
2017-07-10T07:21:21.334Z,1532
2017-07-10T07:22:30.256Z,1540
2017-07-10T07:23:39.177Z,1572
2017-07-10T07:24:48.184Z,1628
2017-07-10T07:25:57.101Z,1676
2017-07-10T07:27:06.027Z,1616
2017-07-10T07:28:14.951Z,1500
2017-07-10T07:29:23.971Z,1516
2017-07-10T07:30:32.899Z,1552
2017-07-10T07:31:41.817Z,1500
2017-07-10T07:32:50.741Z,1392
2017-07-10T07:33:59.992Z,1420
2017-07-10T07:35:08.999Z,1412
2017-07-10T07:36:17.921Z,1548
2017-07-10T07:37:26.845Z,1640
2017-07-10T07:38:35.765Z,1828
2017-07-10T07:39:44.687Z,1804
2017-07-10T07:40:53.615Z,1848
2017-07-10T07:42:02.534Z,1944
2017-07-10T07:43:11.455Z,1984
2017-07-10T07:44:20.381Z,1864
2017-07-10T07:45:29.301Z,1792
2017-07-10T07:46:38.225Z,1736
2017-07-10T07:47:47.146Z,1644
2017-07-10T07:48:56.068Z,1632
2017-07-10T07:50:04.995Z,1652
2017-07-10T07:51:13.922Z,1676
2017-07-10T07:52:22.841Z,1672
2017-07-10T07:53:31.760Z,1640
2017-07-10T07:54:40.682Z,1600
2017-07-10T07:55:49.616Z,1480
2017-07-10T07:56:58.543Z,1356
2017-07-10T07:58:07.562Z,1248
2017-07-10T07:59:16.483Z,1172
2017-07-10T08:00:25.411Z,1164
2017-07-10T08:01:34.336Z,1152
2017-07-10T08:02:43.256Z,1140
2017-07-10T08:03:52.506Z,1152
2017-07-10T08:05:01.428Z,1172
2017-07-10T08:06:10.355Z,1128
2017-07-10T08:07:19.272Z,1036
2017-07-10T08:08:28.193Z,928
2017-07-10T08:09:37.121Z,860
2017-07-10T08:10:46.044Z,744
2017-07-10T08:11:54.966Z,644
2017-07-10T08:13:03.887Z,568
2017-07-10T08:14:12.809Z,512
2017-07-10T08:15:21.734Z,500
2017-07-10T08:16:30.658Z,476
2017-07-10T08:17:39.575Z,436
2017-07-10T08:18:48.500Z,400
2017-07-10T08:19:57.417Z,352
2017-07-10T08:21:06.336Z,320
2017-07-10T08:22:15.258Z,312
2017-07-10T08:23:24.186Z,320
2017-07-10T08:24:33.112Z,348
2017-07-10T08:25:42.033Z,356
2017-07-10T08:26:50.958Z,328
2017-07-10T08:27:59.884Z,280
2017-07-10T08:29:08.802Z,248
2017-07-10T08:30:17.724Z,228
2017-07-10T08:31:26.651Z,220
2017-07-10T08:32:35.567Z,212
2017-07-10T08:33:44.499Z,196
2017-07-10T08:34:53.411Z,188
2017-07-10T08:36:02.338Z,188
2017-07-10T08:37:11.267Z,192
2017-07-10T08:38:20.200Z,208
2017-07-10T08:39:29.124Z,236
2017-07-10T08:40:38.039Z,264
2017-07-10T08:41:46.967Z,268
2017-07-10T08:42:55.885Z,256
2017-07-10T08:44:04.809Z,244
2017-07-10T08:45:13.730Z,212
2017-07-10T08:46:22.655Z,200
2017-07-10T08:47:31.572Z,192
2017-07-10T08:48:40.499Z,184
2017-07-10T08:49:49.423Z,184
2017-07-10T08:50:58.344Z,172
2017-07-10T08:52:07.261Z,172
2017-07-10T08:53:16.185Z,176
2017-07-10T08:54:25.102Z,184
2017-07-10T08:55:34.027Z,220
2017-07-10T08:56:42.952Z,212
2017-07-10T08:57:51.873Z,228
2017-07-10T08:59:00.797Z,232
2017-07-10T09:00:09.716Z,244
2017-07-10T09:01:18.637Z,232
2017-07-10T09:02:27.568Z,228
2017-07-10T09:03:36.479Z,232
2017-07-10T09:04:45.403Z,228
2017-07-10T09:05:54.332Z,236
2017-07-10T09:07:03.259Z,232
2017-07-10T09:08:12.180Z,220
2017-07-10T09:09:21.105Z,208
2017-07-10T09:10:30.022Z,200
2017-07-10T09:11:38.948Z,200
2017-07-10T09:12:47.874Z,200
2017-07-10T09:13:56.798Z,188
2017-07-10T09:15:05.728Z,180
2017-07-10T09:16:14.652Z,160
2017-07-10T09:17:23.575Z,148
2017-07-10T09:18:32.500Z,124
2017-07-10T09:19:41.426Z,124
2017-07-10T09:20:50.350Z,132
2017-07-10T09:21:59.273Z,148
2017-07-10T09:23:08.191Z,164
2017-07-10T09:24:17.448Z,184
2017-07-10T09:25:26.369Z,204
2017-07-10T09:26:35.322Z,240
2017-07-10T09:27:44.577Z,252
2017-07-10T09:28:53.829Z,248
2017-07-10T09:30:02.757Z,264
2017-07-10T09:31:12.002Z,292
2017-07-10T09:32:20.916Z,324
2017-07-10T09:33:29.845Z,356
2017-07-10T09:34:38.760Z,364
2017-07-10T09:35:47.682Z,384
2017-07-10T09:36:56.604Z,400
2017-07-10T09:38:05.521Z,448
2017-07-10T09:39:14.449Z,464
2017-07-10T09:40:23.370Z,504
2017-07-10T09:41:32.291Z,532
2017-07-10T09:42:41.209Z,560
2017-07-10T09:43:50.126Z,632
2017-07-10T09:44:59.047Z,748
2017-07-10T09:46:07.964Z,880
2017-07-10T09:47:16.879Z,928
2017-07-10T09:48:25.858Z,916
2017-07-10T09:49:34.720Z,896
2017-07-10T09:50:43.637Z,832
2017-07-10T09:51:52.553Z,792
2017-07-10T09:53:01.476Z,756
2017-07-10T09:54:10.484Z,716
2017-07-10T09:55:19.476Z,704
2017-07-10T09:56:28.339Z,680
2017-07-10T09:57:37.253Z,692
2017-07-10T09:58:46.169Z,672
2017-07-10T09:59:55.084Z,688
2017-07-10T10:01:04.002Z,692
2017-07-10T10:02:12.921Z,708
2017-07-10T10:03:21.840Z,728
2017-07-10T10:04:30.767Z,736
2017-07-10T10:05:39.687Z,676
2017-07-10T10:06:48.603Z,640
2017-07-10T10:07:57.530Z,532
2017-07-10T10:09:06.451Z,452
2017-07-10T10:10:15.374Z,432
2017-07-10T10:11:24.289Z,480
2017-07-10T10:12:33.547Z,580
2017-07-10T10:13:42.473Z,620
2017-07-10T10:14:51.392Z,688
2017-07-10T10:16:00.310Z,728
2017-07-10T10:17:09.230Z,756
2017-07-10T10:18:18.150Z,740
2017-07-10T10:19:27.067Z,724
2017-07-10T10:20:35.983Z,708
2017-07-10T10:21:44.907Z,760
2017-07-10T10:22:53.831Z,784
2017-07-10T10:24:03.094Z,800
2017-07-10T10:25:12.025Z,784
2017-07-10T10:26:20.944Z,776
2017-07-10T10:27:29.862Z,788
2017-07-10T10:28:38.786Z,800
2017-07-10T10:29:47.706Z,812
2017-07-10T10:30:56.621Z,816
2017-07-10T10:32:05.541Z,840
2017-07-10T10:33:14.462Z,840
2017-07-10T10:34:23.388Z,832
2017-07-10T10:35:32.307Z,832
2017-07-10T10:36:41.226Z,844
2017-07-10T10:37:50.150Z,852
2017-07-10T10:38:59.073Z,848
2017-07-10T10:40:07.996Z,872
2017-07-10T10:41:17.251Z,900
2017-07-10T10:42:26.178Z,948
2017-07-10T10:43:35.097Z,988
2017-07-10T10:44:44.021Z,1024
2017-07-10T10:45:52.935Z,1068
2017-07-10T10:47:01.856Z,1128
2017-07-10T10:48:10.776Z,1176
2017-07-10T10:49:19.698Z,1224
2017-07-10T10:50:28.617Z,1308
2017-07-10T10:51:37.544Z,1380
2017-07-10T10:52:46.471Z,1452
2017-07-10T10:53:55.390Z,1536
2017-07-10T10:55:04.306Z,1628
2017-07-10T10:56:13.220Z,1672
2017-07-10T10:57:22.145Z,1704
2017-07-10T10:58:31.062Z,1740
2017-07-10T10:59:39.985Z,1768
2017-07-10T11:00:48.896Z,1828
2017-07-10T11:01:57.816Z,1912
2017-07-10T11:03:06.734Z,1980
2017-07-10T11:04:15.654Z,2036
2017-07-10T11:05:24.574Z,2032
2017-07-10T11:06:33.494Z,1960
2017-07-10T11:07:42.421Z,1872
2017-07-10T11:08:51.339Z,1804
2017-07-10T11:10:00.261Z,1712
2017-07-10T11:11:09.183Z,1592
2017-07-10T11:12:18.198Z,1528
2017-07-10T11:13:27.120Z,1484
2017-07-10T11:14:36.042Z,1496
2017-07-10T11:15:44.972Z,1520
2017-07-10T11:16:53.912Z,1520
2017-07-10T11:18:02.829Z,1512
2017-07-10T11:19:11.747Z,1508
2017-07-10T11:20:20.672Z,1472
2017-07-10T11:21:29.592Z,1356
2017-07-10T11:22:38.519Z,1344
2017-07-10T11:23:47.446Z,1320
2017-07-10T11:24:56.365Z,1292
2017-07-10T11:26:05.289Z,1324
2017-07-10T11:27:14.214Z,1364
2017-07-10T11:28:23.133Z,1408
2017-07-10T11:29:32.067Z,1612
2017-07-10T11:30:40.986Z,1588
2017-07-10T11:31:49.910Z,1452
2017-07-10T11:32:58.829Z,1380
2017-07-10T11:34:07.747Z,1464
2017-07-10T11:35:16.662Z,1704
2017-07-10T11:36:25.573Z,1940
2017-07-10T11:37:34.498Z,2140
2017-07-10T11:38:43.418Z,2052
2017-07-10T11:39:52.340Z,1968
2017-07-10T11:41:01.289Z,2348
2017-07-10T11:42:10.378Z,2344
2017-07-10T11:43:19.303Z,2292
2017-07-10T11:44:28.252Z,2164
2017-07-10T11:45:37.176Z,1996
2017-07-10T11:46:46.099Z,1884
2017-07-10T11:47:55.019Z,1864
2017-07-10T11:49:03.939Z,1836
2017-07-10T11:50:12.862Z,1968
2017-07-10T11:51:21.787Z,1956
2017-07-10T11:52:31.374Z,1968
2017-07-10T11:53:40.432Z,1800
2017-07-10T11:54:49.351Z,1572
2017-07-10T11:55:58.271Z,1500
2017-07-10T11:57:07.198Z,1140
2017-07-10T11:58:16.125Z,984
2017-07-10T11:59:25.041Z,852
2017-07-10T12:00:34.061Z,656
2017-07-10T12:01:43.311Z,496
2017-07-10T12:02:52.238Z,504
2017-07-10T12:04:01.163Z,400
2017-07-10T12:05:10.076Z,340
2017-07-10T12:06:18.997Z,428
2017-07-10T12:07:27.918Z,392
2017-07-10T12:08:36.849Z,344
2017-07-10T12:09:45.764Z,292
2017-07-10T12:10:54.686Z,364
2017-07-10T12:12:03.613Z,408
2017-07-10T12:13:12.541Z,436
2017-07-10T12:14:21.457Z,464
2017-07-10T12:15:30.374Z,532
2017-07-10T12:16:39.291Z,528
2017-07-10T12:17:48.545Z,544
2017-07-10T12:18:57.546Z,632
2017-07-10T12:20:06.469Z,724
2017-07-10T12:21:15.391Z,784
2017-07-10T12:22:24.310Z,1072
2017-07-10T12:23:33.228Z,916
2017-07-10T12:24:42.148Z,864
2017-07-10T12:25:51.067Z,816
2017-07-10T12:26:59.983Z,1020
2017-07-10T12:28:08.910Z,948
2017-07-10T12:29:17.828Z,864
2017-07-10T12:30:27.080Z,852
2017-07-10T12:31:36.001Z,876
2017-07-10T12:32:44.920Z,892
2017-07-10T12:33:53.844Z,892
2017-07-10T12:35:02.760Z,712
2017-07-10T12:36:11.676Z,652
2017-07-10T12:37:20.591Z,724
2017-07-10T12:38:29.509Z,724
2017-07-10T12:39:38.430Z,972
2017-07-10T12:40:47.348Z,932
2017-07-10T12:41:56.606Z,992
2017-07-10T12:43:05.528Z,1256
2017-07-10T12:44:14.448Z,1448
2017-07-10T12:45:23.365Z,1548
2017-07-10T12:46:32.283Z,1396
2017-07-10T12:47:41.200Z,1152
2017-07-10T12:48:50.129Z,1148
2017-07-10T12:49:59.043Z,1012
2017-07-10T12:51:07.962Z,952
2017-07-10T12:52:17.217Z,1052
2017-07-10T12:53:26.141Z,1784
2017-07-10T12:54:35.143Z,2188
2017-07-10T12:55:44.059Z,1852
2017-07-10T12:56:52.978Z,1792
2017-07-10T12:58:01.903Z,1568
2017-07-10T12:59:10.823Z,1688
2017-07-10T13:00:19.741Z,2464
2017-07-10T13:01:28.659Z,2564
2017-07-10T13:02:37.577Z,2388
2017-07-10T13:03:46.492Z,1888
2017-07-10T13:04:55.416Z,1852
2017-07-10T13:06:04.345Z,2104
2017-07-10T13:07:13.270Z,2184
2017-07-10T13:08:22.192Z,2496
2017-07-10T13:09:31.113Z,2732
2017-07-10T13:10:40.036Z,2852
2017-07-10T13:11:48.960Z,3016
2017-07-10T13:12:57.967Z,2728
2017-07-10T13:14:06.884Z,2720
2017-07-10T13:15:15.803Z,2428
2017-07-10T13:16:24.726Z,2464
2017-07-10T13:17:33.648Z,2084
2017-07-10T13:18:42.564Z,2128
2017-07-10T13:19:51.488Z,2052
2017-07-10T13:21:00.414Z,1624
2017-07-10T13:22:09.671Z,1896
2017-07-10T13:23:18.675Z,1324
2017-07-10T13:24:27.594Z,912
2017-07-10T13:25:36.517Z,688
2017-07-10T13:26:45.434Z,724
2017-07-10T13:27:54.357Z,700
2017-07-10T13:29:03.277Z,684
2017-07-10T13:30:12.199Z,664
2017-07-10T13:31:21.126Z,724
2017-07-10T13:32:30.047Z,720
2017-07-10T13:33:38.973Z,1000
2017-07-10T13:34:47.895Z,1328
2017-07-10T13:35:56.820Z,1228
2017-07-10T13:37:06.079Z,1308
2017-07-10T13:38:15.006Z,1040
2017-07-10T13:39:23.926Z,860
2017-07-10T13:40:32.843Z,928
2017-07-10T13:41:41.767Z,1048
2017-07-10T13:42:50.682Z,1016
2017-07-10T13:43:59.609Z,1060
2017-07-10T13:45:08.530Z,1904
2017-07-10T13:46:17.457Z,2716
2017-07-10T13:47:26.385Z,2848
2017-07-10T13:48:35.314Z,2928
2017-07-10T13:49:44.235Z,2852
2017-07-10T13:50:53.155Z,2284
2017-07-10T13:52:02.161Z,1728
2017-07-10T13:53:11.079Z,1360
2017-07-10T13:54:20.005Z,1564
2017-07-10T13:55:28.939Z,2232
2017-07-10T13:56:37.864Z,2220
2017-07-10T13:57:47.203Z,1856
2017-07-10T13:58:56.123Z,1632
2017-07-10T14:00:05.140Z,1612
2017-07-10T14:01:14.054Z,1700
2017-07-10T14:02:22.971Z,1816
2017-07-10T14:03:31.894Z,1944
2017-07-10T14:04:40.815Z,2128
2017-07-10T14:05:49.735Z,2108
2017-07-10T14:06:58.660Z,2092
2017-07-10T14:08:07.581Z,2060
2017-07-10T14:09:16.505Z,1864
2017-07-10T14:10:25.425Z,1820
2017-07-10T14:11:34.348Z,1924
2017-07-10T14:12:43.264Z,2100
2017-07-10T14:13:52.192Z,2176
2017-07-10T14:15:01.117Z,1640
2017-07-10T14:16:10.041Z,1484
2017-07-10T14:17:18.961Z,1488
2017-07-10T14:18:27.885Z,1484
2017-07-10T14:19:36.802Z,1628
2017-07-10T14:20:45.729Z,1712
2017-07-10T14:21:54.647Z,1560
2017-07-10T14:23:03.566Z,1512
2017-07-10T14:24:12.493Z,1692
2017-07-10T14:25:21.412Z,1588
2017-07-10T14:26:30.337Z,1576
2017-07-10T14:27:39.260Z,1268
2017-07-10T14:28:48.176Z,1284
2017-07-10T14:29:57.098Z,1116
2017-07-10T14:31:06.018Z,992
2017-07-10T14:32:14.944Z,980
2017-07-10T14:33:23.858Z,996
2017-07-10T14:34:32.771Z,1084
2017-07-10T14:35:41.746Z,1120
2017-07-10T14:36:50.665Z,1160
2017-07-10T14:37:59.594Z,1060
2017-07-10T14:39:08.516Z,1016
2017-07-10T14:40:17.436Z,1080
2017-07-10T14:41:26.353Z,1116
2017-07-10T14:42:35.282Z,1184
2017-07-10T14:43:44.210Z,1396
2017-07-10T14:44:53.124Z,1760
2017-07-10T14:46:02.040Z,2056
2017-07-10T14:47:10.963Z,2060
2017-07-10T14:48:19.884Z,1948
2017-07-10T14:49:28.808Z,2148
2017-07-10T14:50:37.730Z,2248
2017-07-10T14:51:46.647Z,2304
2017-07-10T14:52:55.570Z,2208
2017-07-10T14:54:04.578Z,2088
2017-07-10T14:55:13.501Z,2044
2017-07-10T14:56:22.432Z,1816
2017-07-10T14:57:31.359Z,1168
2017-07-10T14:58:40.288Z,1180
2017-07-10T14:59:49.206Z,1148
2017-07-10T15:00:58.130Z,1212
2017-07-10T15:02:07.053Z,1188
2017-07-10T15:03:15.977Z,1224
2017-07-10T15:04:24.899Z,1388
2017-07-10T15:05:33.829Z,1512
2017-07-10T15:06:42.752Z,1620
2017-07-10T15:07:51.671Z,1592
2017-07-10T15:09:00.592Z,1504
2017-07-10T15:10:09.508Z,1260
2017-07-10T15:11:18.431Z,1040
2017-07-10T15:12:27.348Z,836
2017-07-10T15:13:36.274Z,620
2017-07-10T15:14:45.193Z,484
2017-07-10T15:15:54.116Z,412
2017-07-10T15:17:03.034Z,376
2017-07-10T15:18:11.950Z,376
2017-07-10T15:19:20.882Z,388
2017-07-10T15:20:29.807Z,396
2017-07-10T15:21:38.731Z,436
2017-07-10T15:22:47.657Z,460
2017-07-10T15:23:56.578Z,484
2017-07-10T15:25:05.556Z,480
2017-07-10T15:26:14.424Z,496
2017-07-10T15:27:23.346Z,592
2017-07-10T15:28:32.363Z,724
2017-07-10T15:29:41.288Z,812
2017-07-10T15:30:50.211Z,780
2017-07-10T15:31:59.127Z,632
2017-07-10T15:33:08.049Z,592
2017-07-10T15:34:16.973Z,592
2017-07-10T15:35:25.906Z,564
2017-07-10T15:36:35.171Z,544
2017-07-10T15:37:44.095Z,560
2017-07-10T15:38:53.011Z,572
2017-07-10T15:40:01.930Z,544
2017-07-10T15:41:10.853Z,512
2017-07-10T15:42:19.769Z,492
2017-07-10T15:43:28.689Z,476
2017-07-10T15:44:37.618Z,460
2017-07-10T15:45:46.542Z,444
2017-07-10T15:46:55.458Z,432
2017-07-10T15:48:04.381Z,436